Beaufort, SC

9:52 PM EDT on April 18, 2015 (GMT -0400)
KSCBEAUF5 | | Change Station
CLOSE
Current Station
Personal Weather Station
Location: Beaufort, SC
Elevation: 13 ft
Nearby Weather Stations

Elev 13 ft 32.42 °N, 80.69 °W | Updated 2 minutes ago

Mostly Cloudy
Mostly Cloudy
70.3 °F
Feels Like 70.3 °F
N
3.0
Wind Variable Wind from ESE
Gusts 5.0 mph

Today
High -- | Low -- °F
--% Chance of Precip.
Yesterday
High -- | Low -- °F
Precip. -- in
6:50 AM 7:54 PM
New Moon, 0% visible
Pressure 29.98 in
Visibility 7.0 miles
Clouds Scattered Clouds 600 ft
Scattered Clouds 6500 ft
Mostly Cloudy 9000 ft
Dew Point 68 °F
Humidity 93%
Rainfall 0.20 in
Snow Depth Not available.
UV 0.0 out of 12
Pollen 5.50 out of 12
Air Quality Not available.
Flu Activity Local Activity
METAR KARW 190135Z AUTO 00000KT 7SM SCT006 SCT065 BKN090 21/21 A2998 RMK AO2 LTG DSNT S

More Conditions Fewer Conditions

Pressure 29.98 in
Visibility 7.0 miles
Clouds Scattered Clouds 600 ft
Scattered Clouds 6500 ft
Mostly Cloudy 9000 ft
Dew Point 68 °F
Humidity 93%
Rainfall 0.20 in
Snow Depth Not available.
UV 0.0 out of 12
Pollen 5.50 out of 12
Air Quality Not available.
Flu Activity Local Activity
METAR KARW 190135Z AUTO 00000KT 7SM SCT006 SCT065 BKN090 21/21 A2998 RMK AO2 LTG DSNT S

More Conditions Fewer Conditions

10-Day Weather Forecast

Almanac

Astronomy

Apr. 18, 2015 Rise Set
Actual Time
Civil Twilight
Nautical Twilight
Astronomical Twilight
Moon
Length of Visible Light
Length of Day
Tomorrow will be .
, % of the Moon is Illuminated

Today's Extremes

State Highs State Lows

Community

WunderPhotos

Upload Photos

1,814,621 photos uploaded!

WunderBlogs® & News

Nearby

Air Quality

  Air Quality AQ Index Pollutant
Not available.

Snow Depth

Station Depth Elevation

Earthquake Activity

City Distance Mag. Time & Date
Minimum magnitude displayed is 2.5.

Coastal Water Temperatures

Place Temperature

Stations

Nearby Weather Stations

Station Location Temp. Windchill Dew Point Humidity Wind Precip. Elev Updated Type